ADDS METAR Data INFO
IDs: Format: Raw Decoded Include TAF

Data at: 1758 UTC 15 Dec 2017

KCOE 151756Z AUTO 00000KT 8SM UP OVC009 M01/M02 A3012 RMK AO2 UPB11E17B42SNE11B17E42 CIG 006V012 SLP240 P0000 60000 T10111022 11011 21017 58016 FZRANO
KCOE 151741Z AUTO 00000KT 3SM -SN BR OVC007 M01/M02 A3013 RMK AO2 UPB11E17SNE11B17 CIG 005V009 P0000 FZRANO
KCOE 151727Z AUTO 00000KT 1 3/4SM -SN BR OVC007 M01/M02 A3013 RMK AO2 UPB11E17SNE11B17 CIG 005V009 P0000 FZRANO
KCOE 151656Z AUTO 00000KT 8SM -SN OVC007 M01/M02 A3014 RMK AO2 UPB44E46SNB46 SLP248 P0000 T10111022 FZRANO
KCOE 151556Z AUTO 00000KT 10SM OVC009 M01/M02 A3016 RMK AO2 CIG 007V011 SLP253 T10111022 FZRANO
KCOE 151456Z AUTO 27003KT 10SM OVC007 M02/M02 A3017 RMK AO2 CIG 006V009 SLP259 T10171022 56013 FZRANO
KCOE 151356Z AUTO 24005KT 10SM OVC009 M01/M03 A3018 RMK AO2 CIG 006V010 SLP260 T10111028 FZRANO
KCOE 151256Z AUTO 19008KT 10SM BKN011 OVC016 M01/M03 A3019 RMK AO2 SLP264 T10111028 FZRANO
KCOE 151156Z AUTO 20007KT 10SM OVC009 M01/M03 A3021 RMK AO2 SLP271 T10111028 11006 21011 56021 FZRANO
KCOE 151152Z AUTO 20007KT 10SM OVC009 M01/M03 A3021 RMK AO2 FZRANO
KCOE 151056Z AUTO 19004KT 10SM OVC011 M01/M03 A3025 RMK AO2 SLP285 T10111028 FZRANO
KCOE 150956Z AUTO 00000KT 10SM OVC011 M01/M03 A3027 RMK AO2 SLP293 T10111028 FZRANO
KCOE 150856Z AUTO 00000KT 10SM OVC011 M01/M03 A3030 RMK AO2 SLP301 T10111028 56010 FZRANO
KCOE 150756Z AUTO 00000KT 10SM OVC011 M01/M03 A3030 RMK AO2 SLP303 T10111028 400061017 FZRANO
KCOE 150656Z AUTO 00000KT 10SM OVC011 M01/M02 A3032 RMK AO2 SLP309 T10111022 FZRANO
KCOE 150556Z AUTO 08004KT 10SM OVC013 M01/M03 A3033 RMK AO2 PRESFR SLP313 T10061028 10000 21006 58014 FZRANO
KCOE 150456Z AUTO 00000KT 10SM OVC013 M01/M03 A3036 RMK AO2 SLP322 T10061028 FZRANO
KCOE 150356Z AUTO 00000KT 10SM OVC013 M01/M02 A3037 RMK AO2 SLP328 T10061022 FZRANO
KCOE 150256Z AUTO 07004KT 10SM OVC015 M01/M02 A3037 RMK AO2 SLP329 T10061022 58010 FZRANO
KCOE 150156Z AUTO 00000KT 10SM OVC015 M01/M02 A3041 RMK AO2 SLP340 T10061022 FZRANO
KCOE 150056Z AUTO 36005KT 10SM OVC017 M01/M02 A3041 RMK AO2 SLP342 T10061022 FZRANO
KCOE 142356Z AUTO 03005KT 10SM OVC019 00/M02 A3041 RMK AO2 SLP340 T00001022 10006 21006 58014 FZRANO
KCOE 142256Z AUTO 01006KT 10SM OVC019 00/M03 A3044 RMK AO2 SLP351 T00001028 FZRANO
KCOE 142156Z AUTO 01005KT 10SM OVC017 01/M03 A3044 RMK AO2 SLP351 T00061028 FZRANO
KCOE 142056Z AUTO 36004KT 10SM OVC015 01/M03 A3045 RMK AO2 SLP355 T00061028 58016 FZRANO
KCOE 142042Z AUTO 01004KT 10SM OVC015 00/M03 A3045 RMK AO2 FZRANO
KCOE 141956Z AUTO 04005KT 10SM OVC013 00/M03 A3047 RMK AO2 SLP361 T00001028 FZRANO
KCOE 141856Z AUTO 02006KT 10SM OVC013 00/M03 A3050 RMK AO2 SLP372 T00001028 FZRANO
KCOE 141848Z AUTO 03005KT 10SM OVC013 00/M03 A3050 RMK AO2 FZRANO
KCOE 141820Z AUTO 02004KT 10SM OVC015 00/M03 A3052 RMK AO2 FZRANO
KCOE 141756Z AUTO 04004KT 10SM OVC013 M01/M02 A3052 RMK AO2 SLP379 T10061022 11006 21011 53006 FZRANO
KCOE 141656Z AUTO 03005KT 10SM OVC013 M01/M03 A3051 RMK AO2 SLP377 T10061028 FZRANO
KCOE 141456Z AUTO 08004KT 10SM OVC017 M01/M03 A3050 RMK AO2 SLPNO T10111028 58009 FZRANO
KCOE 141356Z AUTO 02007KT 10SM OVC017 M01/M03 A3053 RMK AO2 SLP383 T10111028 FZRANO
KCOE 141156Z AUTO 02007KT 10SM OVC019 M01/M03 A3053 RMK AO2 SLP383 T10111028 11011 21017 58000 FZRANO
KCOE 141056Z AUTO 04008KT 10SM OVC021 M02/M03 A3052 RMK AO2 SLP382 T10171028 FZRANO
KCOE 140956Z AUTO 02007KT 10SM OVC023 M01/M03 A3054 RMK AO2 SLP385 T10111028 FZRANO
KCOE 140856Z AUTO 02008KT 10SM OVC023 M02/M03 A3053 RMK AO2 SLP384 T10171028 58004 FZRANO
KCOE 140756Z AUTO 03007KT 10SM OVC023 M01/M03 A3053 RMK AO2 SLP385 T10111028 410061033 FZRANO
KCOE 140656Z AUTO 03006KT 10SM OVC023 M01/M03 A3055 RMK AO2 SLP390 T10111028 FZRANO